This is the latest recevied weather packets stored in our database for station/object OK1PMP-6. If no packets are shown the sender has not sent any weather packets the latest 10 day(s).
| Time | Temp. | Humidity | Pressure | Rain* | Wind** | Luminosity | Snow |
|---|---|---|---|---|---|---|---|
| 1777925643 | 15.56° C | 63% | 1014.9 hPa | 0 mm | - | 0 W/m² | - |
| 1777922948 | 15.56° C | 62% | 1014.6 hPa | 0 mm | - | 0 W/m² | - |
| 1777919340 | 18.33° C | 52% | 1014.6 hPa | 0 mm | - | 0 W/m² | - |
| 1777918439 | 18.89° C | 50% | 1014.6 hPa | 0 mm | - | 4 W/m² | - |
| 1777917538 | 19.44° C | 49% | 1014.6 hPa | 0 mm | - | 15 W/m² | - |
| 1777916639 | 20° C | 47% | 1014.6 hPa | 0 mm | - | 15 W/m² | - |
| 1777915717 | 20.56° C | 45% | 1014.6 hPa | 0 mm | - | 25 W/m² | - |
| 1777914809 | 21.11° C | 46% | 1014.8 hPa | 0 mm | - | 38 W/m² | - |
| 1777913907 | 21.67° C | 42% | 1014.8 hPa | 0 mm | - | 38 W/m² | - |
| 1777913009 | 23.33° C | 38% | 1014.8 hPa | 0 mm | - | 48 W/m² | - |
| 1777912106 | 25.56° C | 36% | 1014.9 hPa | 0 mm | - | 89 W/m² | - |
| 1777911206 | 25.56° C | 35% | 1015.1 hPa | 0 mm | - | 126 W/m² | - |
| 1777910305 | 24.44° C | 37% | 1015.3 hPa | 0 mm | - | 123 W/m² | - |
| 1777909396 | 24.44° C | 38% | 1015.2 hPa | 0 mm | - | 149 W/m² | - |
| 1777908496 | 23.89° C | 39% | 1015.5 hPa | 0 mm | - | 165 W/m² | - |
| 1777907593 | 23.89° C | 37% | 1015.4 hPa | 0 mm | - | 170 W/m² | - |
| 1777906688 | 23.89° C | 37% | 1015.4 hPa | 0 mm | - | 189 W/m² | - |
| 1777904889 | 24.44° C | 38% | 1015.6 hPa | 0 mm | - | 210 W/m² | - |
| 1777903087 | 25.56° C | 36% | 1015.8 hPa | 0 mm | - | 281 W/m² | - |
| 1777902186 | 25.56° C | 35% | 1015.9 hPa | 0 mm | - | 441 W/m² | - |
| 1777901285 | 25.56° C | 37% | 1015.8 hPa | 0 mm | - | 293 W/m² | - |
| 1777900386 | 25.56° C | 36% | 1015.9 hPa | 0 mm | - | 539 W/m² | - |
| 1777899487 | 25.56° C | 36% | 1016.1 hPa | 0 mm | - | 577 W/m² | - |
| 1777897686 | 23.89° C | 40% | 1016.6 hPa | 0 mm | - | 340 W/m² | - |
| 1777896787 | 22.78° C | 39% | 1016.6 hPa | 0 mm | - | 379 W/m² | - |
* Rain latest hour (hover to see other rain measurements)
** Current wind speed in m/s (hover to see current wind gust speed)